Erin, Canada
Current Conditions -  °F | °C
As of 7:00 AM on Monday 24 Nov 2014 (Local Time) from CYYZ Reporting Station
Light Rain Light Rain  
Wind Chill: 54°   Ceiling: 1900
Heat Index: 54°   Visibility: 15mi
Dew Point: 52°   Wind: 15mph
Humidity: 94%   Direction: 190°S
Pressure: 29.18"   Gusts: 23mph
Location:  43.77°N, 80.07°W
Report Text: CYYZ 241200Z 19013G20KT 15SM -RA SCT014 OVC019 12/11 A2918 RMK SC3SC5 SLP884 DENSITY ALT 1200FT
Loading
Personal Weather Stations






























Interactive Weather Map New forecast layout! Learn more

10-Day Weather Forecast

Advertisements
Track Severe Weather on mobile